sensor_id;sensor_type;location;lat;lon;timestamp;pressure;altitude;pressure_sealevel;temperature;humidity
61870;BME280;47810;42.264;23.826;2023-09-19T00:01:41;94260.44;;;13.47;78.36
61870;BME280;47810;42.264;23.826;2023-09-19T00:04:10;94267.44;;;13.35;78.60
61870;BME280;47810;42.264;23.826;2023-09-19T00:06:36;94267.66;;;13.45;78.36
61870;BME280;47810;42.264;23.826;2023-09-19T00:09:02;94256.81;;;13.48;78.77
61870;BME280;47810;42.264;23.826;2023-09-19T00:11:28;94264.03;;;13.71;77.66
61870;BME280;47810;42.264;23.826;2023-09-19T00:13:54;94265.97;;;13.44;78.66
61870;BME280;47810;42.264;23.826;2023-09-19T00:16:22;94259.38;;;13.49;77.77
61870;BME280;47810;42.264;23.826;2023-09-19T00:18:48;94262.25;;;13.59;78.16
61870;BME280;47810;42.264;23.826;2023-09-19T00:21:14;94260.44;;;13.47;79.08
61870;BME280;47810;42.264;23.826;2023-09-19T00:23:40;94258.75;;;13.59;78.42
61870;BME280;47810;42.264;23.826;2023-09-19T00:26:06;94253.09;;;13.63;78.12
61870;BME280;47810;42.264;23.826;2023-09-19T00:28:32;94251.22;;;13.40;77.97
61870;BME280;47810;42.264;23.826;2023-09-19T00:30:57;94249.75;;;13.36;78.14
61870;BME280;47810;42.264;23.826;2023-09-19T00:33:26;94243.53;;;13.73;77.25
61870;BME280;47810;42.264;23.826;2023-09-19T00:35:55;94245.78;;;13.54;77.60
61870;BME280;47810;42.264;23.826;2023-09-19T00:38:21;94241.56;;;13.64;77.97
61870;BME280;47810;42.264;23.826;2023-09-19T00:40:52;94243.75;;;13.70;77.36
61870;BME280;47810;42.264;23.826;2023-09-19T00:43:18;94238.97;;;13.75;77.39
61870;BME280;47810;42.264;23.826;2023-09-19T00:45:45;94241.94;;;13.84;77.64
61870;BME280;47810;42.264;23.826;2023-09-19T00:48:11;94233.59;;;14.01;76.65
61870;BME280;47810;42.264;23.826;2023-09-19T00:50:37;94231.97;;;13.74;76.11
61870;BME280;47810;42.264;23.826;2023-09-19T00:53:07;94227.72;;;13.72;76.38
61870;BME280;47810;42.264;23.826;2023-09-19T00:55:33;94225.81;;;13.74;76.46
61870;BME280;47810;42.264;23.826;2023-09-19T00:58:00;94227.53;;;13.62;76.59
61870;BME280;47810;42.264;23.826;2023-09-19T01:00:26;94230.31;;;13.48;77.00
61870;BME280;47810;42.264;23.826;2023-09-19T01:02:52;94235.19;;;13.28;77.82
61870;BME280;47810;42.264;23.826;2023-09-19T01:05:18;94229.25;;;13.38;78.42
61870;BME280;47810;42.264;23.826;2023-09-19T01:07:44;94225.00;;;13.48;78.21
61870;BME280;47810;42.264;23.826;2023-09-19T01:10:11;94234.97;;;13.57;77.53
61870;BME280;47810;42.264;23.826;2023-09-19T01:18:03;94232.59;;;13.78;77.68
61870;BME280;47810;42.264;23.826;2023-09-19T01:26:15;94237.94;;;13.65;78.15
61870;BME280;47810;42.264;23.826;2023-09-19T01:28:32;94235.34;;;13.77;77.06
61870;BME280;47810;42.264;23.826;2023-09-19T01:31:04;94238.75;;;13.79;76.17
61870;BME280;47810;42.264;23.826;2023-09-19T01:36:18;94225.75;;;13.37;77.02
61870;BME280;47810;42.264;23.826;2023-09-19T01:38:45;94224.06;;;13.11;78.18
61870;BME280;47810;42.264;23.826;2023-09-19T01:41:11;94222.59;;;12.94;79.07
61870;BME280;47810;42.264;23.826;2023-09-19T01:43:38;94213.88;;;12.92;79.36
61870;BME280;47810;42.264;23.826;2023-09-19T01:51:32;94212.50;;;12.86;79.55
61870;BME280;47810;42.264;23.826;2023-09-19T01:56:44;94218.84;;;12.83;80.33
61870;BME280;47810;42.264;23.826;2023-09-19T01:59:13;94218.19;;;12.67;80.25
61870;BME280;47810;42.264;23.826;2023-09-19T02:01:39;94209.94;;;12.59;81.11
61870;BME280;47810;42.264;23.826;2023-09-19T02:04:06;94211.00;;;12.82;80.61
61870;BME280;47810;42.264;23.826;2023-09-19T02:06:33;94208.03;;;12.74;81.21
61870;BME280;47810;42.264;23.826;2023-09-19T02:08:59;94211.19;;;12.53;81.37
61870;BME280;47810;42.264;23.826;2023-09-19T02:11:25;94204.28;;;12.51;81.89
61870;BME280;47810;42.264;23.826;2023-09-19T02:13:50;94206.72;;;12.54;81.94
61870;BME280;47810;42.264;23.826;2023-09-19T02:16:19;94206.53;;;12.57;82.24
61870;BME280;47810;42.264;23.826;2023-09-19T02:18:48;94203.13;;;12.55;82.70
61870;BME280;47810;42.264;23.826;2023-09-19T02:21:17;94204.72;;;12.70;82.46
61870;BME280;47810;42.264;23.826;2023-09-19T02:23:44;94207.50;;;12.81;82.41
61870;BME280;47810;42.264;23.826;2023-09-19T02:26:09;94201.03;;;12.98;81.70
61870;BME280;47810;42.264;23.826;2023-09-19T02:28:37;94198.19;;;12.89;81.67
61870;BME280;47810;42.264;23.826;2023-09-19T02:31:03;94191.81;;;12.78;81.18
61870;BME280;47810;42.264;23.826;2023-09-19T02:33:31;94195.84;;;12.97;80.80
61870;BME280;47810;42.264;23.826;2023-09-19T02:35:58;94192.72;;;12.52;81.69
61870;BME280;47810;42.264;23.826;2023-09-19T02:38:24;94192.63;;;12.41;82.17
61870;BME280;47810;42.264;23.826;2023-09-19T02:40:51;94190.28;;;12.36;82.63
61870;BME280;47810;42.264;23.826;2023-09-19T02:43:17;94187.66;;;12.49;83.24
61870;BME280;47810;42.264;23.826;2023-09-19T02:45:42;94184.28;;;12.59;83.39
61870;BME280;47810;42.264;23.826;2023-09-19T02:48:08;94180.66;;;12.61;83.09
61870;BME280;47810;42.264;23.826;2023-09-19T02:50:34;94185.75;;;12.64;82.58
61870;BME280;47810;42.264;23.826;2023-09-19T02:52:59;94182.59;;;12.58;82.47
61870;BME280;47810;42.264;23.826;2023-09-19T02:55:25;94179.16;;;12.44;83.45
61870;BME280;47810;42.264;23.826;2023-09-19T02:57:54;94182.47;;;12.47;83.26
61870;BME280;47810;42.264;23.826;2023-09-19T03:00:23;94188.72;;;12.46;82.79
61870;BME280;47810;42.264;23.826;2023-09-19T03:02:50;94176.53;;;12.44;83.01
61870;BME280;47810;42.264;23.826;2023-09-19T03:05:18;94175.16;;;12.51;83.12
61870;BME280;47810;42.264;23.826;2023-09-19T03:07:44;94178.75;;;12.50;83.33
61870;BME280;47810;42.264;23.826;2023-09-19T03:10:11;94171.53;;;12.52;83.42
61870;BME280;47810;42.264;23.826;2023-09-19T03:12:36;94167.97;;;12.53;82.54
61870;BME280;47810;42.264;23.826;2023-09-19T03:15:03;94168.59;;;12.44;82.77
61870;BME280;47810;42.264;23.826;2023-09-19T03:17:29;94161.06;;;12.63;82.31
61870;BME280;47810;42.264;23.826;2023-09-19T03:19:56;94162.25;;;12.72;81.39
61870;BME280;47810;42.264;23.826;2023-09-19T03:22:22;94162.88;;;12.75;81.83
61870;BME280;47810;42.264;23.826;2023-09-19T03:24:49;94162.47;;;12.69;82.21
61870;BME280;47810;42.264;23.826;2023-09-19T03:27:15;94169.78;;;12.78;82.02
61870;BME280;47810;42.264;23.826;2023-09-19T03:29:41;94175.19;;;12.76;82.82
61870;BME280;47810;42.264;23.826;2023-09-19T03:32:07;94181.94;;;12.80;82.48
61870;BME280;47810;42.264;23.826;2023-09-19T03:34:35;94182.38;;;12.74;82.56
61870;BME280;47810;42.264;23.826;2023-09-19T03:37:01;94190.44;;;12.73;82.52
61870;BME280;47810;42.264;23.826;2023-09-19T03:39:28;94191.28;;;12.73;82.21
61870;BME280;47810;42.264;23.826;2023-09-19T03:41:54;94194.03;;;12.59;82.96
61870;BME280;47810;42.264;23.826;2023-09-19T03:44:20;94185.25;;;12.71;82.75
61870;BME280;47810;42.264;23.826;2023-09-19T03:46:45;94177.63;;;12.79;82.56
61870;BME280;47810;42.264;23.826;2023-09-19T03:49:12;94177.94;;;12.88;82.47
61870;BME280;47810;42.264;23.826;2023-09-19T03:51:37;94184.59;;;12.93;82.05
61870;BME280;47810;42.264;23.826;2023-09-19T03:54:03;94186.63;;;12.90;82.33
61870;BME280;47810;42.264;23.826;2023-09-19T03:56:29;94181.03;;;12.81;82.37
61870;BME280;47810;42.264;23.826;2023-09-19T03:58:55;94176.13;;;12.75;82.51
61870;BME280;47810;42.264;23.826;2023-09-19T04:01:20;94179.63;;;12.63;82.44
61870;BME280;47810;42.264;23.826;2023-09-19T04:03:46;94185.75;;;12.64;82.53
61870;BME280;47810;42.264;23.826;2023-09-19T04:06:13;94179.28;;;12.55;82.59
61870;BME280;47810;42.264;23.826;2023-09-19T04:08:39;94178.09;;;12.33;83.52
61870;BME280;47810;42.264;23.826;2023-09-19T04:11:04;94176.19;;;12.35;83.25
61870;BME280;47810;42.264;23.826;2023-09-19T04:13:31;94170.81;;;12.50;83.04
61870;BME280;47810;42.264;23.826;2023-09-19T04:15:56;94174.19;;;12.65;82.48
61870;BME280;47810;42.264;23.826;2023-09-19T04:18:22;94165.41;;;12.64;82.76
61870;BME280;47810;42.264;23.826;2023-09-19T04:20:52;94168.41;;;12.72;82.57
61870;BME280;47810;42.264;23.826;2023-09-19T04:23:18;94171.13;;;12.71;82.41
61870;BME280;47810;42.264;23.826;2023-09-19T04:25:46;94171.34;;;12.55;83.18
61870;BME280;47810;42.264;23.826;2023-09-19T04:28:11;94165.41;;;12.64;83.26
61870;BME280;47810;42.264;23.826;2023-09-19T04:30:38;94172.22;;;12.68;83.15
61870;BME280;47810;42.264;23.826;2023-09-19T04:33:05;94174.75;;;12.70;83.42
61870;BME280;47810;42.264;23.826;2023-09-19T04:35:31;94177.06;;;12.74;83.82
61870;BME280;47810;42.264;23.826;2023-09-19T04:37:57;94181.94;;;12.80;83.19
61870;BME280;47810;42.264;23.826;2023-09-19T04:40:23;94181.03;;;12.81;83.15
61870;BME280;47810;42.264;23.826;2023-09-19T04:42:55;94181.94;;;12.80;83.45
61870;BME280;47810;42.264;23.826;2023-09-19T04:45:27;94185.34;;;12.82;83.35
61870;BME280;47810;42.264;23.826;2023-09-19T04:47:53;94188.53;;;12.88;83.60
61870;BME280;47810;42.264;23.826;2023-09-19T04:50:20;94185.69;;;12.78;83.73
61870;BME280;47810;42.264;23.826;2023-09-19T04:52:50;94185.34;;;12.82;83.50
61870;BME280;47810;42.264;23.826;2023-09-19T04:55:16;94183.88;;;12.78;84.03
61870;BME280;47810;42.264;23.826;2023-09-19T04:57:47;94188.97;;;12.81;84.02
61870;BME280;47810;42.264;23.826;2023-09-19T05:00:13;94191.81;;;12.78;84.37
61870;BME280;47810;42.264;23.826;2023-09-19T05:02:43;94198.50;;;12.84;84.55
61870;BME280;47810;42.264;23.826;2023-09-19T05:05:09;94194.06;;;12.85;83.91
61870;BME280;47810;42.264;23.826;2023-09-19T05:07:42;94193.94;;;12.86;84.42
61870;BME280;47810;42.264;23.826;2023-09-19T05:10:09;94192.25;;;12.85;84.91
61870;BME280;47810;42.264;23.826;2023-09-19T05:12:35;94192.34;;;12.83;84.85
61870;BME280;47810;42.264;23.826;2023-09-19T05:15:02;94192.69;;;12.92;84.52
61870;BME280;47810;42.264;23.826;2023-09-19T05:17:28;94194.91;;;12.98;84.71
61870;BME280;47810;42.264;23.826;2023-09-19T05:19:53;94198.72;;;13.07;84.43
61870;BME280;47810;42.264;23.826;2023-09-19T05:22:19;94193.94;;;13.12;83.94
61870;BME280;47810;42.264;23.826;2023-09-19T05:24:45;94197.00;;;13.18;84.36
61870;BME280;47810;42.264;23.826;2023-09-19T05:27:14;94193.41;;;13.19;84.93
61870;BME280;47810;42.264;23.826;2023-09-19T05:29:45;94192.13;;;13.12;85.95
61870;BME280;47810;42.264;23.826;2023-09-19T05:32:10;94189.81;;;13.20;85.25
61870;BME280;47810;42.264;23.826;2023-09-19T05:34:37;94185.78;;;13.27;84.88
61870;BME280;47810;42.264;23.826;2023-09-19T05:37:03;94190.84;;;13.18;84.01
61870;BME280;47810;42.264;23.826;2023-09-19T05:39:30;94187.56;;;13.14;84.13
61870;BME280;47810;42.264;23.826;2023-09-19T05:41:55;94184.09;;;13.14;84.16
61870;BME280;47810;42.264;23.826;2023-09-19T05:44:22;94177.94;;;13.39;84.75
61870;BME280;47810;42.264;23.826;2023-09-19T05:46:48;94180.06;;;13.34;85.14
61870;BME280;47810;42.264;23.826;2023-09-19T05:51:58;94179.84;;;13.37;86.17
61870;BME280;47810;42.264;23.826;2023-09-19T05:54:24;94167.31;;;13.39;85.42
61870;BME280;47810;42.264;23.826;2023-09-19T05:56:49;94168.47;;;13.35;84.90
61870;BME280;47810;42.264;23.826;2023-09-19T05:59:18;94173.34;;;13.41;84.74
61870;BME280;47810;42.264;23.826;2023-09-19T06:01:44;94166.84;;;13.45;84.22
61870;BME280;47810;42.264;23.826;2023-09-19T06:04:09;94173.66;;;13.49;84.14
61870;BME280;47810;42.264;23.826;2023-09-19T06:06:35;94177.88;;;13.64;84.37
61870;BME280;47810;42.264;23.826;2023-09-19T06:09:04;94174.03;;;13.68;84.14
61870;BME280;47810;42.264;23.826;2023-09-19T06:11:31;94173.81;;;13.71;84.27
61870;BME280;47810;42.264;23.826;2023-09-19T06:14:00;94169.22;;;13.73;84.66
61870;BME280;47810;42.264;23.826;2023-09-19T06:16:28;94169.91;;;13.88;85.33
61870;BME280;47810;42.264;23.826;2023-09-19T06:18:54;94158.19;;;14.04;84.84
61870;BME280;47810;42.264;23.826;2023-09-19T06:21:22;94162.66;;;14.03;84.52
61870;BME280;47810;42.264;23.826;2023-09-19T06:23:48;94157.34;;;14.03;84.77
61870;BME280;47810;42.264;23.826;2023-09-19T06:26:13;94158.34;;;14.13;84.81
61870;BME280;47810;42.264;23.826;2023-09-19T06:28:39;94161.00;;;14.13;84.20
61870;BME280;47810;42.264;23.826;2023-09-19T06:31:05;94162.03;;;14.35;85.30
61870;BME280;47810;42.264;23.826;2023-09-19T06:33:35;94153.34;;;14.33;84.51
61870;BME280;47810;42.264;23.826;2023-09-19T06:36:04;94160.69;;;14.53;84.46
61870;BME280;47810;42.264;23.826;2023-09-19T06:38:30;94147.72;;;14.49;84.09
61870;BME280;47810;42.264;23.826;2023-09-19T06:40:56;94157.00;;;14.43;83.33
61870;BME280;47810;42.264;23.826;2023-09-19T06:43:23;94154.84;;;14.48;82.81
61870;BME280;47810;42.264;23.826;2023-09-19T06:45:49;94160.34;;;14.58;83.75
61870;BME280;47810;42.264;23.826;2023-09-19T06:48:17;94153.97;;;14.72;82.56
61870;BME280;47810;42.264;23.826;2023-09-19T06:50:43;94153.41;;;14.90;82.62
61870;BME280;47810;42.264;23.826;2023-09-19T06:53:10;94150.50;;;15.05;82.33
61870;BME280;47810;42.264;23.826;2023-09-19T06:55:35;94149.19;;;14.99;82.59
61870;BME280;47810;42.264;23.826;2023-09-19T06:58:02;94147.97;;;15.14;81.78
61870;BME280;47810;42.264;23.826;2023-09-19T07:00:27;94145.06;;;15.40;81.51
61870;BME280;47810;42.264;23.826;2023-09-19T07:02:57;94142.88;;;15.45;80.40
61870;BME280;47810;42.264;23.826;2023-09-19T07:05:24;94145.03;;;15.63;79.87
61870;BME280;47810;42.264;23.826;2023-09-19T07:07:49;94138.25;;;15.81;80.01
61870;BME280;47810;42.264;23.826;2023-09-19T07:10:15;94139.50;;;16.09;80.86
61870;BME280;47810;42.264;23.826;2023-09-19T07:12:44;94142.03;;;16.11;79.45
61870;BME280;47810;42.264;23.826;2023-09-19T07:15:10;94147.94;;;16.25;78.78
61870;BME280;47810;42.264;23.826;2023-09-19T07:17:36;94147.09;;;16.25;77.50
61870;BME280;47810;42.264;23.826;2023-09-19T07:20:02;94144.50;;;16.56;78.95
61870;BME280;47810;42.264;23.826;2023-09-19T07:22:33;94147.66;;;16.82;78.39
61870;BME280;47810;42.264;23.826;2023-09-19T07:24:58;94145.63;;;16.95;76.17
61870;BME280;47810;42.264;23.826;2023-09-19T07:27:24;94142.94;;;17.16;74.37
61870;BME280;47810;42.264;23.826;2023-09-19T07:29:50;94146.75;;;17.44;73.65
61870;BME280;47810;42.264;23.826;2023-09-19T07:32:16;94146.19;;;17.90;69.85
61870;BME280;47810;42.264;23.826;2023-09-19T07:34:42;94148.59;;;17.93;69.89
61870;BME280;47810;42.264;23.826;2023-09-19T07:37:09;94140.03;;;18.00;71.25
61870;BME280;47810;42.264;23.826;2023-09-19T07:39:35;94138.50;;;18.07;71.02
61870;BME280;47810;42.264;23.826;2023-09-19T07:42:00;94144.41;;;18.10;71.10
61870;BME280;47810;42.264;23.826;2023-09-19T07:44:26;94133.56;;;18.02;69.85
61870;BME280;47810;42.264;23.826;2023-09-19T07:46:52;94136.28;;;18.31;68.99
61870;BME280;47810;42.264;23.826;2023-09-19T07:49:19;94139.38;;;18.56;70.41
61870;BME280;47810;42.264;23.826;2023-09-19T07:51:44;94132.31;;;18.84;68.05
61870;BME280;47810;42.264;23.826;2023-09-19T07:54:12;94130.88;;;19.09;66.91
61870;BME280;47810;42.264;23.826;2023-09-19T07:56:40;94134.00;;;19.04;67.33
61870;BME280;47810;42.264;23.826;2023-09-19T07:59:06;94126.69;;;18.77;66.18
61870;BME280;47810;42.264;23.826;2023-09-19T08:01:31;94130.06;;;18.99;68.38
61870;BME280;47810;42.264;23.826;2023-09-19T08:03:58;94123.38;;;19.22;67.57
61870;BME280;47810;42.264;23.826;2023-09-19T08:06:24;94125.22;;;19.59;64.53
61870;BME280;47810;42.264;23.826;2023-09-19T08:08:52;94118.44;;;19.65;63.11
61870;BME280;47810;42.264;23.826;2023-09-19T08:11:19;94127.00;;;19.96;64.28
61870;BME280;47810;42.264;23.826;2023-09-19T08:13:46;94126.38;;;20.30;64.38
61870;BME280;47810;42.264;23.826;2023-09-19T08:16:15;94122.03;;;20.64;62.80
61870;BME280;47810;42.264;23.826;2023-09-19T08:18:40;94129.28;;;20.90;61.34
61870;BME280;47810;42.264;23.826;2023-09-19T08:21:06;94129.72;;;21.03;59.42
61870;BME280;47810;42.264;23.826;2023-09-19T08:23:36;94132.13;;;21.14;57.86
61870;BME280;47810;42.264;23.826;2023-09-19T08:26:03;94132.84;;;21.16;59.59
61870;BME280;47810;42.264;23.826;2023-09-19T08:28:32;94133.88;;;21.42;58.73
61870;BME280;47810;42.264;23.826;2023-09-19T08:31:01;94128.81;;;21.38;57.75
61870;BME280;47810;42.264;23.826;2023-09-19T08:33:26;94132.69;;;21.44;58.15
61870;BME280;47810;42.264;23.826;2023-09-19T08:35:55;94126.34;;;21.01;58.87
61870;BME280;47810;42.264;23.826;2023-09-19T08:38:21;94120.44;;;21.24;58.55
61870;BME280;47810;42.264;23.826;2023-09-19T08:40:46;94123.50;;;21.29;57.66
61870;BME280;47810;42.264;23.826;2023-09-19T08:43:12;94120.72;;;21.12;58.76
61870;BME280;47810;42.264;23.826;2023-09-19T08:45:38;94113.88;;;21.44;57.54
61870;BME280;47810;42.264;23.826;2023-09-19T08:50:31;94106.06;;;21.59;57.17
61870;BME280;47810;42.264;23.826;2023-09-19T08:53:02;94108.38;;;21.54;56.80
61870;BME280;47810;42.264;23.826;2023-09-19T08:55:32;94106.81;;;21.35;57.48
61870;BME280;47810;42.264;23.826;2023-09-19T08:58:01;94103.56;;;21.57;56.52
61870;BME280;47810;42.264;23.826;2023-09-19T09:00:29;94102.28;;;21.78;54.90
61870;BME280;47810;42.264;23.826;2023-09-19T09:02:56;94100.19;;;21.63;56.95
61870;BME280;47810;42.264;23.826;2023-09-19T09:07:50;94092.22;;;21.80;57.31
61870;BME280;47810;42.264;23.826;2023-09-19T09:10:18;94087.03;;;21.86;55.59
61870;BME280;47810;42.264;23.826;2023-09-19T09:12:58;94091.84;;;21.75;56.60
61870;BME280;47810;42.264;23.826;2023-09-19T09:15:24;94087.84;;;21.79;56.66
61870;BME280;47810;42.264;23.826;2023-09-19T09:17:51;94091.91;;;21.83;56.56
61870;BME280;47810;42.264;23.826;2023-09-19T09:20:20;94098.19;;;21.66;56.49
61870;BME280;47810;42.264;23.826;2023-09-19T09:22:52;94103.91;;;21.62;56.37
61870;BME280;47810;42.264;23.826;2023-09-19T09:25:21;94105.06;;;21.60;55.79
61870;BME280;47810;42.264;23.826;2023-09-19T09:27:59;94097.50;;;21.63;56.82
61870;BME280;47810;42.264;23.826;2023-09-19T09:30:32;94095.50;;;21.66;56.09
61870;BME280;47810;42.264;23.826;2023-09-19T09:33:08;94092.00;;;21.73;55.37
61870;BME280;47810;42.264;23.826;2023-09-19T09:35:35;94086.16;;;21.86;56.87
61870;BME280;47810;42.264;23.826;2023-09-19T09:38:21;94079.06;;;21.69;57.16
61870;BME280;47810;42.264;23.826;2023-09-19T09:40:51;94082.47;;;21.79;55.89
61870;BME280;47810;42.264;23.826;2023-09-19T09:43:26;94074.91;;;21.74;57.26
61870;BME280;47810;42.264;23.826;2023-09-19T09:46:27;94072.34;;;21.73;56.56
61870;BME280;47810;42.264;23.826;2023-09-19T09:51:42;94071.84;;;21.69;57.05
61870;BME280;47810;42.264;23.826;2023-09-19T09:54:18;94071.97;;;21.59;57.69
61870;BME280;47810;42.264;23.826;2023-09-19T09:56:54;94069.34;;;21.68;58.43
61870;BME280;47810;42.264;23.826;2023-09-19T10:02:08;94054.63;;;22.04;55.30
61870;BME280;47810;42.264;23.826;2023-09-19T10:04:38;94050.59;;;22.08;56.08
61870;BME280;47810;42.264;23.826;2023-09-19T10:07:50;94043.94;;;22.21;54.24
61870;BME280;47810;42.264;23.826;2023-09-19T10:13:10;94043.94;;;22.37;56.10
61870;BME280;47810;42.264;23.826;2023-09-19T10:15:44;94046.13;;;22.33;54.20
61870;BME280;47810;42.264;23.826;2023-09-19T10:18:23;94043.44;;;22.50;53.91
61870;BME280;47810;42.264;23.826;2023-09-19T10:20:49;94040.25;;;22.87;54.08
61870;BME280;47810;42.264;23.826;2023-09-19T10:23:19;94043.88;;;23.27;51.57
61870;BME280;47810;42.264;23.826;2023-09-19T10:25:49;94049.75;;;23.39;52.36
61870;BME280;47810;42.264;23.826;2023-09-19T10:28:16;94049.13;;;23.68;51.41
61870;BME280;47810;42.264;23.826;2023-09-19T10:30:43;94038.03;;;23.71;50.87
61870;BME280;47810;42.264;23.826;2023-09-19T10:33:13;94043.94;;;24.06;49.92
61870;BME280;47810;42.264;23.826;2023-09-19T10:35:42;94043.28;;;24.27;49.81
61870;BME280;47810;42.264;23.826;2023-09-19T10:38:09;94037.66;;;24.36;48.41
61870;BME280;47810;42.264;23.826;2023-09-19T10:40:35;94038.03;;;24.33;49.05
61870;BME280;47810;42.264;23.826;2023-09-19T10:43:02;94036.59;;;24.46;47.79
61870;BME280;47810;42.264;23.826;2023-09-19T10:45:35;94027.72;;;24.37;48.51
61870;BME280;47810;42.264;23.826;2023-09-19T10:48:01;94025.50;;;24.40;49.35
61870;BME280;47810;42.264;23.826;2023-09-19T10:50:30;94031.06;;;24.16;49.07
61870;BME280;47810;42.264;23.826;2023-09-19T10:52:59;94022.56;;;24.27;48.54
61870;BME280;47810;42.264;23.826;2023-09-19T10:55:30;94017.44;;;24.32;48.31
61870;BME280;47810;42.264;23.826;2023-09-19T10:57:57;94020.25;;;24.16;48.88
61870;BME280;47810;42.264;23.826;2023-09-19T11:00:56;94009.47;;;24.16;50.58
61870;BME280;47810;42.264;23.826;2023-09-19T11:03:23;94012.72;;;24.34;48.94
61870;BME280;47810;42.264;23.826;2023-09-19T11:06:01;94012.25;;;24.54;49.33
61870;BME280;47810;42.264;23.826;2023-09-19T11:22:13;94001.69;;;24.67;47.83
61870;BME280;47810;42.264;23.826;2023-09-19T11:24:40;93998.06;;;24.75;47.31
61870;BME280;47810;42.264;23.826;2023-09-19T11:27:12;94009.06;;;24.73;48.42
61870;BME280;47810;42.264;23.826;2023-09-19T11:29:43;94004.16;;;24.54;48.56
61870;BME280;47810;42.264;23.826;2023-09-19T11:32:09;93995.69;;;24.57;47.26
61870;BME280;47810;42.264;23.826;2023-09-19T11:34:39;93997.09;;;24.53;48.32
61870;BME280;47810;42.264;23.826;2023-09-19T11:39:39;93990.06;;;24.81;48.47
61870;BME280;47810;42.264;23.826;2023-09-19T11:44:52;93984.03;;;25.09;45.84
61870;BME280;47810;42.264;23.826;2023-09-19T11:47:21;93992.25;;;25.01;47.43
61870;BME280;47810;42.264;23.826;2023-09-19T11:49:50;93985.25;;;25.06;47.93
61870;BME280;47810;42.264;23.826;2023-09-19T11:52:21;93983.84;;;24.96;47.15
61870;BME280;47810;42.264;23.826;2023-09-19T11:54:56;93977.19;;;25.21;47.01
61870;BME280;47810;42.264;23.826;2023-09-19T11:57:22;93968.41;;;25.19;46.91
61870;BME280;47810;42.264;23.826;2023-09-19T11:59:48;93967.16;;;25.07;47.82
61870;BME280;47810;42.264;23.826;2023-09-19T12:02:18;93966.06;;;25.01;47.08
61870;BME280;47810;42.264;23.826;2023-09-19T12:04:55;93958.31;;;24.83;48.44
61870;BME280;47810;42.264;23.826;2023-09-19T12:07:20;93958.34;;;25.13;46.34
61870;BME280;47810;42.264;23.826;2023-09-19T12:09:50;93954.81;;;25.27;45.89
61870;BME280;47810;42.264;23.826;2023-09-19T12:12:19;93954.81;;;25.13;46.68
61870;BME280;47810;42.264;23.826;2023-09-19T12:14:48;93952.13;;;25.13;46.61
61870;BME280;47810;42.264;23.826;2023-09-19T12:17:14;93935.03;;;25.42;46.95
61870;BME280;47810;42.264;23.826;2023-09-19T12:19:49;93938.25;;;25.67;47.03
61870;BME280;47810;42.264;23.826;2023-09-19T12:22:15;93935.56;;;25.82;46.03
61870;BME280;47810;42.264;23.826;2023-09-19T12:24:43;93932.53;;;25.76;45.80
61870;BME280;47810;42.264;23.826;2023-09-19T12:27:09;93930.75;;;25.98;46.60
61870;BME280;47810;42.264;23.826;2023-09-19T12:29:43;93921.53;;;26.14;45.95
61870;BME280;47810;42.264;23.826;2023-09-19T12:32:09;93916.09;;;25.93;46.08
61870;BME280;47810;42.264;23.826;2023-09-19T12:34:35;93911.97;;;25.97;45.21
61870;BME280;47810;42.264;23.826;2023-09-19T12:39:31;93909.25;;;25.75;45.65
61870;BME280;47810;42.264;23.826;2023-09-19T12:41:57;93916.09;;;25.56;47.08
61870;BME280;47810;42.264;23.826;2023-09-19T12:44:23;93907.16;;;25.56;48.18
61870;BME280;47810;42.264;23.826;2023-09-19T12:46:50;93908.69;;;25.29;47.72
61870;BME280;47810;42.264;23.826;2023-09-19T12:49:19;93906.72;;;25.08;47.63
61870;BME280;47810;42.264;23.826;2023-09-19T12:51:46;93907.84;;;24.99;48.06
61870;BME280;47810;42.264;23.826;2023-09-19T12:54:12;93901.78;;;24.97;49.59
61870;BME280;47810;42.264;23.826;2023-09-19T12:56:43;93891.91;;;24.89;48.53
61870;BME280;47810;42.264;23.826;2023-09-19T12:59:14;93894.88;;;24.94;48.75
61870;BME280;47810;42.264;23.826;2023-09-19T13:01:40;93892.56;;;25.06;47.46
61870;BME280;47810;42.264;23.826;2023-09-19T13:04:18;93892.38;;;24.93;48.35
61870;BME280;47810;42.264;23.826;2023-09-19T13:06:48;93889.59;;;25.01;50.42
61870;BME280;47810;42.264;23.826;2023-09-19T13:09:14;93888.34;;;25.03;48.11
61870;BME280;47810;42.264;23.826;2023-09-19T13:11:42;93896.91;;;25.07;48.66
61870;BME280;47810;42.264;23.826;2023-09-19T13:14:14;93887.16;;;25.06;48.21
61870;BME280;47810;42.264;23.826;2023-09-19T13:16:53;93883.06;;;24.95;47.45
61870;BME280;47810;42.264;23.826;2023-09-19T13:24:56;93886.22;;;24.99;47.72
61870;BME280;47810;42.264;23.826;2023-09-19T13:27:23;93890.13;;;24.81;48.22
61870;BME280;47810;42.264;23.826;2023-09-19T13:29:49;93887.16;;;24.76;48.63
61870;BME280;47810;42.264;23.826;2023-09-19T13:32:15;93883.91;;;24.66;49.76
61870;BME280;47810;42.264;23.826;2023-09-19T13:34:40;93883.53;;;24.69;49.69
61870;BME280;47810;42.264;23.826;2023-09-19T13:37:06;93881.56;;;24.63;49.55
61870;BME280;47810;42.264;23.826;2023-09-19T13:39:32;93879.69;;;24.26;48.68
61870;BME280;47810;42.264;23.826;2023-09-19T13:41:57;93878.56;;;24.43;49.95
61870;BME280;47810;42.264;23.826;2023-09-19T13:44:24;93883.03;;;24.51;49.38
61870;BME280;47810;42.264;23.826;2023-09-19T13:46:49;93871.78;;;24.62;49.58
61870;BME280;47810;42.264;23.826;2023-09-19T13:49:16;93870.75;;;24.93;50.94
61870;BME280;47810;42.264;23.826;2023-09-19T13:51:43;93868.25;;;25.21;47.38
61870;BME280;47810;42.264;23.826;2023-09-19T13:54:09;93871.28;;;25.32;47.33
61870;BME280;47810;42.264;23.826;2023-09-19T13:56:35;93867.97;;;25.30;47.72
61870;BME280;47810;42.264;23.826;2023-09-19T13:59:02;93875.03;;;25.31;48.66